Terminal Aerodrome Forecast
Issued by NWS Northern Indiana

Home | Current Version | Previous Version | Graphics & Text | Print | Product List | Glossary On
Versions: 1 2 3 4 5 6 7 8 9 10 11 12 13 14 15 16 17
000
FTUS43 KIWX 291459 AAB
TAFFWA
TAF AMD
KFWA 291459Z 2915/3012 07007KT 6SM BR BKN005
      TEMPO 2915/2916 BKN010
     FM291600 08006KT P6SM FEW040 SCT250
     FM300400 VRB03KT P6SM SCT250=

USA.gov is the U.S. government's official web portal to all federal, state and local government web resources and services.